createdAt,value
2023-05-12T00:00:09.928Z,10.33
2023-05-12T00:02:36.594Z,10.25
2023-05-12T00:05:04.409Z,10.34
2023-05-12T00:07:31.000Z,10.32
2023-05-12T00:09:57.528Z,10.27
2023-05-12T00:12:24.071Z,10.36
2023-05-12T00:14:50.683Z,10.33
2023-05-12T00:17:17.340Z,10.25
2023-05-12T00:19:44.332Z,10.24
2023-05-12T00:22:11.697Z,10.29
2023-05-12T00:24:38.405Z,10.33
2023-05-12T00:27:05.578Z,10.30
2023-05-12T00:29:33.608Z,10.30
2023-05-12T00:32:00.445Z,10.34
2023-05-12T00:34:30.201Z,10.28
2023-05-12T00:36:56.964Z,10.26
2023-05-12T00:39:23.728Z,10.20
2023-05-12T00:41:58.266Z,10.29
2023-05-12T00:44:24.939Z,10.25
2023-05-12T00:46:52.806Z,10.32
2023-05-12T00:49:23.276Z,10.28
2023-05-12T00:51:50.360Z,10.22
2023-05-12T00:54:17.316Z,10.29
2023-05-12T00:56:43.985Z,10.23
2023-05-12T00:59:10.879Z,10.23
2023-05-12T01:01:38.053Z,10.26
2023-05-12T01:04:05.020Z,10.20
2023-05-12T01:06:49.580Z,10.22
2023-05-12T01:09:16.606Z,10.14
2023-05-12T01:11:43.180Z,10.25
2023-05-12T01:14:09.758Z,10.23
2023-05-12T01:16:48.309Z,10.24
2023-05-12T01:19:34.777Z,10.22
2023-05-12T01:22:01.565Z,10.15
2023-05-12T01:24:31.043Z,10.28
2023-05-12T01:26:59.232Z,10.17
2023-05-12T01:29:26.535Z,10.24
2023-05-12T01:31:53.481Z,10.22
2023-05-12T01:34:20.856Z,10.23
2023-05-12T01:36:47.485Z,10.21
2023-05-12T01:39:14.324Z,10.26
2023-05-12T01:41:41.244Z,10.25
2023-05-12T01:44:08.285Z,10.30
2023-05-12T01:46:35.145Z,10.28
2023-05-12T01:49:01.695Z,10.30
2023-05-12T01:51:28.357Z,10.25
2023-05-12T01:53:54.963Z,10.27
2023-05-12T01:56:22.050Z,10.25
2023-05-12T01:58:48.778Z,10.32
2023-05-12T02:01:15.488Z,10.16
2023-05-12T02:03:42.531Z,10.16
2023-05-12T02:06:09.597Z,10.25
2023-05-12T02:08:36.265Z,10.26
2023-05-12T02:11:07.332Z,10.20
2023-05-12T02:13:35.048Z,10.23
2023-05-12T02:16:02.326Z,10.28
2023-05-12T02:18:28.932Z,10.23
2023-05-12T02:20:55.782Z,10.26
2023-05-12T02:23:22.548Z,10.28
2023-05-12T02:25:49.100Z,10.29
2023-05-12T02:28:15.986Z,10.26
2023-05-12T02:30:48.872Z,10.23
2023-05-12T02:33:25.300Z,10.24
2023-05-12T02:35:51.855Z,10.30
2023-05-12T02:38:18.427Z,10.24
2023-05-12T02:40:46.680Z,10.28
2023-05-12T02:43:13.451Z,10.26
2023-05-12T02:45:40.506Z,10.30
2023-05-12T02:48:07.421Z,10.27
2023-05-12T02:50:34.018Z,10.24
2023-05-12T02:53:00.905Z,10.30
2023-05-12T02:55:30.334Z,10.28
2023-05-12T02:57:57.441Z,10.30
2023-05-12T03:00:24.057Z,10.31
2023-05-12T03:02:50.690Z,10.29
2023-05-12T03:05:17.580Z,10.31
2023-05-12T03:07:44.117Z,10.25
2023-05-12T03:10:10.910Z,10.23
2023-05-12T03:12:37.708Z,10.25
2023-05-12T03:15:05.072Z,10.29
2023-05-12T03:17:31.712Z,10.27
2023-05-12T03:19:58.331Z,10.34
2023-05-12T03:22:25.182Z,10.33
2023-05-12T03:24:52.033Z,10.35
2023-05-12T03:27:18.856Z,10.35
2023-05-12T03:29:46.048Z,10.33
2023-05-12T03:32:13.148Z,10.37
2023-05-12T03:34:41.204Z,10.37
2023-05-12T03:37:08.032Z,10.36
2023-05-12T03:39:34.567Z,10.31
2023-05-12T03:42:01.162Z,10.30
2023-05-12T03:44:27.712Z,10.28
2023-05-12T03:46:54.329Z,10.32
2023-05-12T03:49:20.900Z,10.30
2023-05-12T03:51:47.536Z,10.32
2023-05-12T03:54:14.091Z,10.36
2023-05-12T03:56:40.651Z,10.34
2023-05-12T03:59:07.242Z,10.35
2023-05-12T04:01:34.537Z,10.39
2023-05-12T04:04:01.502Z,10.32
2023-05-12T04:06:28.126Z,10.33
2023-05-12T04:08:54.787Z,10.29
2023-05-12T04:11:21.414Z,10.28
2023-05-12T04:13:47.931Z,10.35
2023-05-12T04:16:16.797Z,10.32
2023-05-12T04:18:43.472Z,10.42
2023-05-12T04:21:10.172Z,10.32
2023-05-12T04:23:36.792Z,10.38
2023-05-12T04:26:05.602Z,10.35
2023-05-12T04:28:32.297Z,10.37
2023-05-12T04:31:05.450Z,10.47
2023-05-12T04:33:32.013Z,10.46
2023-05-12T04:35:59.021Z,10.51
2023-05-12T04:38:28.855Z,10.46
2023-05-12T04:40:59.484Z,10.42
2023-05-12T04:45:57.037Z,10.43
2023-05-12T04:48:26.927Z,10.45
2023-05-12T04:50:53.474Z,10.48
2023-05-12T04:53:20.089Z,10.46
2023-05-12T04:55:46.807Z,10.41
2023-05-12T04:58:16.273Z,10.44
2023-05-12T05:00:43.304Z,10.51
2023-05-12T05:03:10.125Z,10.57
2023-05-12T05:05:36.747Z,10.58
2023-05-12T05:08:03.321Z,10.66
2023-05-12T05:10:29.928Z,10.62
2023-05-12T05:12:56.763Z,10.61
2023-05-12T05:15:23.732Z,10.70
2023-05-12T05:17:50.693Z,10.64
2023-05-12T05:20:17.754Z,10.70
2023-05-12T05:22:44.420Z,10.72
2023-05-12T05:25:11.320Z,10.74
2023-05-12T05:27:38.965Z,10.80
2023-05-12T05:30:09.383Z,10.79
2023-05-12T05:32:37.267Z,10.83
2023-05-12T05:35:04.118Z,10.67
2023-05-12T05:37:30.871Z,10.79
2023-05-12T05:39:57.598Z,10.86
2023-05-12T05:42:24.407Z,10.85
2023-05-12T05:44:51.009Z,10.82
2023-05-12T05:47:17.624Z,10.89
2023-05-12T05:49:44.452Z,11.03
2023-05-12T05:52:11.061Z,10.98
2023-05-12T05:54:37.676Z,10.96
2023-05-12T05:57:04.629Z,10.88
2023-05-12T05:59:31.263Z,10.93
2023-05-12T06:01:58.422Z,10.90
2023-05-12T06:04:25.180Z,10.92
2023-05-12T06:06:51.808Z,10.98
2023-05-12T06:09:18.413Z,11.06
2023-05-12T06:11:44.946Z,11.19
2023-05-12T06:14:11.907Z,11.09
2023-05-12T06:16:38.648Z,11.12
2023-05-12T06:19:05.349Z,11.15
2023-05-12T06:21:32.405Z,11.06
2023-05-12T06:23:59.190Z,11.11
2023-05-12T06:26:25.864Z,11.19
2023-05-12T06:28:52.435Z,11.43
2023-05-12T06:31:21.744Z,11.42
2023-05-12T06:33:48.442Z,11.37
2023-05-12T06:36:15.318Z,11.46
2023-05-12T06:38:41.910Z,11.48
2023-05-12T06:41:08.571Z,11.55
2023-05-12T06:43:35.221Z,11.79
2023-05-12T06:46:02.190Z,11.98
2023-05-12T06:48:31.785Z,12.11
2023-05-12T06:50:58.383Z,12.00
2023-05-12T06:53:25.685Z,11.93
2023-05-12T06:55:54.024Z,12.24
2023-05-12T06:58:22.290Z,12.18
2023-05-12T07:00:49.170Z,12.39
2023-05-12T07:03:16.015Z,12.30
2023-05-12T07:05:42.937Z,12.37
2023-05-12T07:08:09.792Z,12.35
2023-05-12T07:10:38.062Z,12.11
2023-05-12T07:13:04.735Z,12.28
2023-05-12T07:15:32.958Z,12.28
2023-05-12T07:17:59.809Z,12.30
2023-05-12T07:20:26.448Z,12.36
2023-05-12T07:22:54.884Z,12.32
2023-05-12T07:25:22.161Z,12.41
2023-05-12T07:27:49.370Z,12.38
2023-05-12T07:30:16.681Z,12.32
2023-05-12T07:32:43.395Z,12.53
2023-05-12T07:35:10.650Z,12.78
2023-05-12T07:37:37.360Z,12.81
2023-05-12T07:40:04.887Z,12.96
2023-05-12T07:42:31.596Z,12.69
2023-05-12T07:44:58.328Z,12.93
2023-05-12T07:47:25.165Z,12.94
2023-05-12T07:49:51.998Z,12.86
2023-05-12T07:52:18.559Z,12.74
2023-05-12T07:54:45.157Z,12.50
2023-05-12T07:57:11.722Z,12.52
2023-05-12T07:59:38.520Z,12.58
2023-05-12T08:02:05.107Z,13.10
2023-05-12T08:04:34.721Z,13.25
2023-05-12T08:07:01.356Z,13.72
2023-05-12T08:09:27.922Z,13.91
2023-05-12T08:11:54.632Z,13.89
2023-05-12T08:14:22.783Z,13.63
2023-05-12T08:16:49.551Z,13.34
2023-05-12T08:19:16.275Z,13.59
2023-05-12T08:21:43.219Z,13.59
2023-05-12T08:24:10.071Z,14.10
2023-05-12T08:26:36.621Z,14.41
2023-05-12T08:29:05.078Z,14.26
2023-05-12T08:31:32.445Z,13.76
2023-05-12T08:34:09.172Z,13.61
2023-05-12T08:36:36.867Z,14.21
2023-05-12T08:39:03.505Z,14.13
2023-05-12T08:41:49.032Z,13.90
2023-05-12T08:44:16.021Z,13.71
2023-05-12T08:46:43.668Z,13.61
2023-05-12T08:49:12.642Z,13.38
2023-05-12T08:51:40.799Z,13.51
2023-05-12T08:54:09.381Z,13.31
2023-05-12T08:59:09.621Z,13.23
2023-05-12T09:01:37.073Z,12.85
2023-05-12T09:04:07.284Z,12.71
2023-05-12T09:06:34.015Z,12.65
2023-05-12T09:09:00.754Z,12.57
2023-05-12T09:11:27.380Z,12.57
2023-05-12T09:14:06.691Z,12.52
2023-05-12T09:16:37.138Z,12.52
2023-05-12T09:19:06.811Z,12.60
2023-05-12T09:21:34.386Z,12.62
2023-05-12T09:24:06.659Z,12.57
2023-05-12T09:26:52.696Z,12.55
2023-05-12T09:29:30.867Z,12.63
2023-05-12T09:32:00.493Z,12.74
2023-05-12T09:34:30.626Z,12.94
2023-05-12T09:37:02.532Z,13.13
2023-05-12T09:39:29.196Z,13.34
2023-05-12T09:41:56.313Z,13.10
2023-05-12T09:44:24.548Z,13.12
2023-05-12T09:46:52.196Z,13.19
2023-05-12T09:49:25.959Z,13.01
2023-05-12T09:51:59.482Z,13.11
2023-05-12T09:54:27.776Z,12.99
2023-05-12T09:57:00.921Z,12.68
2023-05-12T09:59:31.767Z,12.64
2023-05-12T10:02:02.879Z,12.69
2023-05-12T10:04:39.524Z,12.56
2023-05-12T10:07:10.362Z,12.69
2023-05-12T10:09:39.494Z,12.68
2023-05-12T10:12:06.582Z,12.64
2023-05-12T10:14:38.862Z,12.80
2023-05-12T10:17:07.143Z,12.87
2023-05-12T10:19:35.629Z,12.84
2023-05-12T10:22:02.177Z,12.87
2023-05-12T10:24:28.890Z,13.21
2023-05-12T10:26:57.868Z,13.10
2023-05-12T10:29:30.487Z,13.22
2023-05-12T10:31:58.115Z,13.39
2023-05-12T10:34:31.141Z,13.16
2023-05-12T10:36:58.421Z,13.05
2023-05-12T10:39:29.912Z,13.17
2023-05-12T10:42:08.896Z,13.26
2023-05-12T10:44:37.023Z,13.42
2023-05-12T10:47:14.036Z,13.24
2023-05-12T10:49:42.004Z,13.58
2023-05-12T10:52:12.172Z,13.65
2023-05-12T10:54:44.883Z,14.01
2023-05-12T10:57:20.423Z,14.01
2023-05-12T10:59:52.990Z,14.18
2023-05-12T11:02:27.553Z,14.35
2023-05-12T11:05:00.225Z,14.23
2023-05-12T11:07:30.856Z,14.19
2023-05-12T11:10:01.642Z,14.13
2023-05-12T11:12:32.892Z,14.10
2023-05-12T11:15:01.686Z,13.80
2023-05-12T11:17:29.065Z,13.72
2023-05-12T11:19:55.912Z,13.54
2023-05-12T11:22:24.089Z,13.55
2023-05-12T11:24:52.996Z,13.91
2023-05-12T11:27:23.300Z,13.90
2023-05-12T11:29:58.560Z,14.09
2023-05-12T11:32:25.181Z,14.09
2023-05-12T11:34:51.793Z,13.83
2023-05-12T11:37:21.661Z,13.50
2023-05-12T11:39:48.525Z,13.44
2023-05-12T11:42:18.586Z,13.36
2023-05-12T11:44:50.204Z,13.10
2023-05-12T11:47:19.145Z,13.11
2023-05-12T11:49:55.921Z,13.25
2023-05-12T11:52:24.870Z,12.76
2023-05-12T11:55:00.301Z,12.84
2023-05-12T11:57:32.200Z,12.61
2023-05-12T12:00:00.945Z,12.50
2023-05-12T12:02:28.319Z,12.47
2023-05-12T12:04:55.389Z,12.18
2023-05-12T12:07:36.026Z,12.20
2023-05-12T12:10:16.900Z,12.22
2023-05-12T12:12:44.916Z,12.51
2023-05-12T12:15:12.446Z,12.49
2023-05-12T12:17:40.236Z,12.67
2023-05-12T12:20:08.468Z,12.76
2023-05-12T12:22:35.433Z,12.73
2023-05-12T12:25:03.114Z,13.06
2023-05-12T12:27:30.086Z,13.19
2023-05-12T12:29:56.723Z,13.34
2023-05-12T12:32:23.518Z,13.28
2023-05-12T12:34:50.244Z,13.16
2023-05-12T12:37:17.305Z,13.37
2023-05-12T12:39:44.407Z,13.24
2023-05-12T12:42:10.954Z,13.25
2023-05-12T12:44:37.563Z,13.45
2023-05-12T12:47:05.127Z,13.59
2023-05-12T12:49:32.060Z,14.13
2023-05-12T12:51:58.710Z,14.11
2023-05-12T12:54:28.824Z,14.24
2023-05-12T12:56:55.984Z,14.41
2023-05-12T12:59:23.480Z,14.33
2023-05-12T13:01:50.351Z,14.52
2023-05-12T13:04:19.774Z,14.59
2023-05-12T13:06:46.827Z,14.04
2023-05-12T13:09:14.027Z,14.17
2023-05-12T13:11:40.766Z,13.85
2023-05-12T13:14:08.386Z,13.96
2023-05-12T13:16:34.988Z,14.02
2023-05-12T13:19:01.770Z,14.50
2023-05-12T13:21:28.468Z,14.18
2023-05-12T13:23:55.095Z,14.30
2023-05-12T13:26:21.665Z,14.42
2023-05-12T13:28:48.279Z,14.01
2023-05-12T13:31:14.992Z,14.30
2023-05-12T13:33:41.686Z,14.22
2023-05-12T13:36:08.267Z,14.37
2023-05-12T13:38:34.930Z,14.51
2023-05-12T13:41:02.152Z,14.47
2023-05-12T13:43:28.787Z,14.40
2023-05-12T13:45:55.387Z,14.66
2023-05-12T13:48:22.034Z,14.63
2023-05-12T13:50:50.318Z,14.35
2023-05-12T13:53:16.852Z,14.52
2023-05-12T13:55:44.721Z,14.26
2023-05-12T13:58:11.401Z,14.10
2023-05-12T14:00:38.026Z,14.09
2023-05-12T14:03:04.669Z,13.96
2023-05-12T14:05:31.350Z,13.93
2023-05-12T14:07:58.059Z,13.68
2023-05-12T14:10:24.799Z,13.47
2023-05-12T14:12:51.398Z,13.42
2023-05-12T14:17:47.465Z,13.27
2023-05-12T14:20:14.551Z,13.19
2023-05-12T14:22:42.067Z,13.07
2023-05-12T14:25:08.934Z,12.95
2023-05-12T14:27:35.774Z,12.95
2023-05-12T14:30:02.521Z,12.85
2023-05-12T14:32:29.196Z,12.90
2023-05-12T14:34:55.766Z,12.76
2023-05-12T14:37:22.357Z,12.80
2023-05-12T14:39:52.787Z,12.82
2023-05-12T14:42:20.202Z,12.75
2023-05-12T14:44:46.803Z,12.69
2023-05-12T14:47:13.362Z,12.68
2023-05-12T14:49:39.891Z,12.74
2023-05-12T14:52:06.853Z,12.94
2023-05-12T14:54:34.051Z,12.69
2023-05-12T14:57:00.753Z,12.87
2023-05-12T14:59:29.513Z,12.85
2023-05-12T15:01:56.198Z,12.85
2023-05-12T15:04:23.727Z,12.80
2023-05-12T15:06:53.210Z,12.73
2023-05-12T15:09:19.799Z,12.73
2023-05-12T15:11:46.481Z,12.84
2023-05-12T15:14:13.120Z,12.78
2023-05-12T15:16:39.789Z,12.79
2023-05-12T15:19:06.673Z,12.92
2023-05-12T15:21:34.886Z,12.87
2023-05-12T15:24:02.846Z,12.85
2023-05-12T15:26:33.795Z,12.84
2023-05-12T15:29:01.859Z,13.07
2023-05-12T15:31:31.083Z,13.05
2023-05-12T15:33:58.032Z,12.91
2023-05-12T15:36:24.752Z,12.73
2023-05-12T15:38:54.373Z,12.89
2023-05-12T15:41:20.942Z,12.84
2023-05-12T15:43:48.342Z,12.82
2023-05-12T15:46:14.970Z,12.98
2023-05-12T15:48:41.624Z,12.98
2023-05-12T15:51:08.266Z,13.12
2023-05-12T15:53:35.046Z,12.93
2023-05-12T15:56:02.999Z,12.87
2023-05-12T15:58:29.944Z,12.82
2023-05-12T16:00:56.842Z,12.79
2023-05-12T16:03:24.009Z,12.68
2023-05-12T16:05:51.261Z,12.74
2023-05-12T16:08:18.076Z,12.76
2023-05-12T16:10:44.911Z,12.71
2023-05-12T16:13:11.487Z,12.59
2023-05-12T16:15:38.074Z,12.54
2023-05-12T16:18:06.988Z,12.79
2023-05-12T16:20:35.178Z,12.68
2023-05-12T16:23:02.798Z,12.56
2023-05-12T16:25:29.401Z,12.64
2023-05-12T16:27:56.341Z,12.43
2023-05-12T16:30:23.240Z,12.54
2023-05-12T16:32:49.921Z,12.59
2023-05-12T16:35:16.686Z,12.50
2023-05-12T16:37:43.269Z,12.44
2023-05-12T16:40:10.235Z,12.32
2023-05-12T16:42:37.302Z,12.38
2023-05-12T16:45:04.234Z,12.47
2023-05-12T16:47:30.783Z,12.52
2023-05-12T16:49:59.308Z,12.46
2023-05-12T16:52:27.070Z,12.53
2023-05-12T16:54:56.418Z,12.52
2023-05-12T16:57:24.300Z,12.41
2023-05-12T16:59:51.121Z,12.33
2023-05-12T17:02:17.932Z,12.34
2023-05-12T17:04:44.920Z,12.42
2023-05-12T17:07:11.576Z,12.30
2023-05-12T17:09:38.225Z,12.43
2023-05-12T17:12:06.881Z,12.38
2023-05-12T17:14:35.287Z,12.45
2023-05-12T17:17:02.455Z,12.52
2023-05-12T17:19:29.853Z,12.45
2023-05-12T17:21:56.630Z,12.64
2023-05-12T17:24:23.171Z,12.64
2023-05-12T17:26:49.945Z,12.64
2023-05-12T17:29:17.126Z,12.61
2023-05-12T17:31:43.923Z,12.66
2023-05-12T17:34:10.820Z,12.52
2023-05-12T17:36:37.656Z,12.54
2023-05-12T17:39:04.663Z,12.54
2023-05-12T17:41:31.345Z,12.46
2023-05-12T17:43:58.121Z,12.45
2023-05-12T17:46:24.808Z,12.45
2023-05-12T17:48:51.525Z,12.56
2023-05-12T17:51:18.263Z,12.59
2023-05-12T17:53:44.888Z,12.63
2023-05-12T17:56:11.907Z,12.45
2023-05-12T17:58:38.648Z,12.52
2023-05-12T18:01:05.554Z,12.43
2023-05-12T18:03:32.273Z,12.46
2023-05-12T18:05:58.950Z,12.42
2023-05-12T18:08:27.281Z,12.29
2023-05-12T18:10:54.143Z,12.36
2023-05-12T18:13:20.687Z,12.25
2023-05-12T18:15:49.038Z,12.23
2023-05-12T18:18:15.802Z,12.10
2023-05-12T18:20:42.598Z,12.26
2023-05-12T18:23:09.205Z,12.25
2023-05-12T18:25:35.762Z,12.26
2023-05-12T18:28:02.410Z,12.32
2023-05-12T18:30:29.121Z,12.35
2023-05-12T18:32:56.094Z,12.29
2023-05-12T18:35:23.316Z,12.33
2023-05-12T18:37:50.188Z,12.31
2023-05-12T18:40:17.045Z,12.28
2023-05-12T18:42:43.963Z,12.23
2023-05-12T18:45:11.336Z,12.18
2023-05-12T18:47:38.265Z,12.18
2023-05-12T18:50:05.590Z,12.13
2023-05-12T18:52:32.221Z,12.02
2023-05-12T18:54:59.957Z,11.98
2023-05-12T18:57:26.664Z,11.98
2023-05-12T18:59:53.520Z,11.97
2023-05-12T19:02:20.099Z,11.95
2023-05-12T19:04:47.461Z,11.96
2023-05-12T19:07:15.635Z,11.88
2023-05-12T19:09:43.404Z,11.92
2023-05-12T19:12:12.143Z,11.85
2023-05-12T19:14:39.737Z,11.83
2023-05-12T19:17:07.586Z,11.80
2023-05-12T19:19:34.874Z,11.83
2023-05-12T19:22:01.683Z,11.83
2023-05-12T19:24:28.394Z,11.77
2023-05-12T19:26:55.077Z,11.77
2023-05-12T19:29:21.799Z,11.72
2023-05-12T19:31:48.453Z,11.76
2023-05-12T19:34:15.145Z,11.79
2023-05-12T19:36:41.751Z,11.73
2023-05-12T19:39:08.280Z,11.72
2023-05-12T19:41:34.928Z,11.73
2023-05-12T19:44:04.495Z,11.76
2023-05-12T19:46:31.112Z,11.71
2023-05-12T19:48:57.883Z,11.67
2023-05-12T19:51:24.722Z,11.65
2023-05-12T19:53:51.267Z,11.74
2023-05-12T19:56:18.915Z,11.69
2023-05-12T19:58:45.534Z,11.72
2023-05-12T20:01:12.539Z,11.70
2023-05-12T20:03:39.287Z,11.71
2023-05-12T20:06:06.290Z,11.69
2023-05-12T20:08:32.888Z,11.69
2023-05-12T20:10:59.719Z,11.72
2023-05-12T20:13:26.487Z,11.73
2023-05-12T20:15:53.074Z,11.72
2023-05-12T20:18:21.592Z,11.71
2023-05-12T20:20:48.279Z,11.69
2023-05-12T20:23:15.026Z,11.73
2023-05-12T20:25:41.613Z,11.67
2023-05-12T20:28:09.601Z,11.67
2023-05-12T20:30:39.158Z,11.63
2023-05-12T20:33:05.888Z,11.60
2023-05-12T20:35:32.466Z,11.67
2023-05-12T20:37:59.452Z,11.65
2023-05-12T20:40:26.170Z,11.65
2023-05-12T20:42:52.818Z,11.68
2023-05-12T20:45:20.068Z,11.73
2023-05-12T20:47:47.211Z,11.72
2023-05-12T20:50:13.880Z,11.65
2023-05-12T20:52:41.685Z,11.65
2023-05-12T20:55:09.649Z,11.71
2023-05-12T20:57:36.376Z,11.72
2023-05-12T21:00:04.074Z,11.67
2023-05-12T21:02:30.773Z,11.66
2023-05-12T21:04:57.601Z,11.60
2023-05-12T21:07:24.217Z,11.62
2023-05-12T21:09:51.019Z,11.63
2023-05-12T21:12:17.748Z,11.59
2023-05-12T21:14:45.533Z,11.51
2023-05-12T21:17:13.546Z,11.60
2023-05-12T21:19:40.983Z,11.56
2023-05-12T21:22:09.206Z,11.54
2023-05-12T21:24:37.555Z,11.48
2023-05-12T21:27:05.801Z,11.55
2023-05-12T21:29:33.901Z,11.38
2023-05-12T21:32:01.063Z,11.32
2023-05-12T21:34:27.958Z,11.40
2023-05-12T21:36:54.979Z,11.28
2023-05-12T21:39:22.132Z,11.25
2023-05-12T21:41:49.122Z,11.20
2023-05-12T21:44:16.357Z,11.26
2023-05-12T21:46:43.123Z,11.22
2023-05-12T21:49:09.998Z,11.15
2023-05-12T21:51:39.641Z,11.14
2023-05-12T21:54:06.364Z,11.12
2023-05-12T21:56:33.262Z,11.13
2023-05-12T21:58:59.807Z,11.06
2023-05-12T22:01:26.447Z,10.98
2023-05-12T22:03:53.044Z,11.04
2023-05-12T22:06:20.022Z,11.06
2023-05-12T22:08:46.571Z,11.02
2023-05-12T22:11:13.447Z,11.09
2023-05-12T22:13:40.347Z,10.98
2023-05-12T22:16:07.156Z,11.04
2023-05-12T22:18:33.856Z,11.02
2023-05-12T22:21:00.696Z,10.95
2023-05-12T22:23:27.268Z,10.95
2023-05-12T22:25:53.880Z,10.97
2023-05-12T22:28:20.523Z,10.94
2023-05-12T22:30:47.063Z,10.93
2023-05-12T22:33:13.620Z,10.92
2023-05-12T22:35:40.160Z,10.93
2023-05-12T22:38:06.874Z,10.96
2023-05-12T22:40:36.823Z,11.05
2023-05-12T22:43:03.537Z,11.04
2023-05-12T22:45:30.081Z,11.03
2023-05-12T22:47:56.868Z,10.99
2023-05-12T22:50:23.989Z,11.03
2023-05-12T22:52:52.961Z,11.06
2023-05-12T22:55:19.626Z,11.03
2023-05-12T22:57:46.576Z,11.06
2023-05-12T23:00:13.999Z,11.13
2023-05-12T23:02:40.655Z,11.14
2023-05-12T23:05:07.543Z,11.11
2023-05-12T23:07:34.079Z,11.19
2023-05-12T23:10:00.660Z,11.12
2023-05-12T23:12:27.253Z,11.07
2023-05-12T23:14:53.880Z,11.06
2023-05-12T23:17:20.985Z,11.12
2023-05-12T23:19:47.822Z,11.03
2023-05-12T23:22:14.364Z,11.02
2023-05-12T23:24:41.030Z,11.06
2023-05-12T23:27:07.597Z,11.04
2023-05-12T23:29:34.647Z,11.03
2023-05-12T23:32:01.392Z,11.06
2023-05-12T23:34:28.490Z,11.04
2023-05-12T23:36:55.091Z,11.04
2023-05-12T23:39:21.703Z,11.15
2023-05-12T23:41:48.363Z,11.05
2023-05-12T23:44:15.144Z,11.06
2023-05-12T23:46:41.886Z,11.02
2023-05-12T23:49:08.974Z,10.98
2023-05-12T23:51:35.876Z,10.97
2023-05-12T23:54:02.428Z,10.95
2023-05-12T23:56:29.000Z,11.04
2023-05-12T23:58:55.545Z,11.02
